Time;durP1;ratioP1;P1;durP2;ratioP2;P2;SDS_P1;SDS_P2;PMS_P1;PMS_P2;Temp;Humidity;BMP_temperature;BMP_pressure;BME280_temperature;BME280_humidity;BME280_pressure;Samples;Min_cycle;Max_cycle;Signal;HPM_P1;HPM_P2
2022/06/04 00:00:33;;;;;;;1999.90;588.38;;;12.00;3.50;;;;;;5094374;28;20044;-80
2022/06/04 00:02:59;;;;;;;1472.38;319.17;;;11.90;2.00;;;;;;5112839;28;20044;-79
2022/06/04 00:05:28;;;;;;;1999.90;820.88;;;11.90;1.70;;;;;;5077592;28;20080;-79
2022/06/04 00:07:55;;;;;;;1999.90;483.33;;;12.10;4.20;;;;;;5113339;28;20051;-79
2022/06/04 00:15:58;;;;;;;1999.90;785.95;;;11.90;10.50;;;;;;5112791;28;20100;-79
2022/06/04 00:18:24;;;;;;;1999.90;571.38;;;11.90;6.30;;;;;;5112732;28;20051;-80
2022/06/04 00:20:52;;;;;;;1999.90;617.78;;;11.90;4.60;;;;;;5094356;28;20043;-80
2022/06/04 00:23:18;;;;;;;1999.90;999.90;;;11.90;5.50;;;;;;5112544;28;20059;-80
2022/06/04 00:25:49;;;;;;;1999.90;617.38;;;11.80;10.70;;;;;;5112795;28;20051;-79
2022/06/04 00:28:16;;;;;;;1999.90;665.28;;;11.80;12.10;;;;;;5112855;28;20196;-80
2022/06/04 00:30:42;;;;;;;1999.90;533.40;;;11.80;9.00;;;;;;5113048;28;20048;-80
2022/06/04 00:33:08;;;;;;;1999.90;999.90;;;11.80;17.90;;;;;;5076926;28;20281;-85
2022/06/04 00:35:34;;;;;;;1999.90;999.90;;;11.80;18.70;;;;;;5111233;28;20051;-79
2022/06/04 00:38:00;;;;;;;1999.90;719.50;;;12.90;21.00;;;;;;5076986;28;20043;-84
2022/06/04 00:40:49;;;;;;;1844.68;816.35;;;11.80;19.20;;;;;;5111911;28;20047;-79
2022/06/04 00:43:17;;;;;;;1516.68;486.92;;;11.80;15.30;;;;;;5094254;28;20055;-80
2022/06/04 00:46:06;;;;;;;1925.45;481.52;;;11.80;24.40;;;;;;5112103;28;20138;-80
2022/06/04 00:48:32;;;;;;;1974.07;585.88;;;11.80;18.10;;;;;;5112900;28;20061;-80
2022/06/04 00:50:58;;;;;;;1999.90;785.40;;;11.70;20.70;;;;;;5112243;28;20040;-80
2022/06/04 00:53:24;;;;;;;1999.90;999.90;;;11.90;17.80;;;;;;5111552;28;20101;-81
2022/06/04 00:56:11;;;;;;;1999.90;999.90;;;11.70;18.90;;;;;;5111317;28;20240;-80
2022/06/04 00:58:53;;;;;;;1999.90;999.90;;;11.70;24.60;;;;;;5111932;28;20387;-80
2022/06/04 01:01:27;;;;;;;1999.90;545.95;;;11.70;27.80;;;;;;5112157;28;20052;-82
2022/06/04 01:04:05;;;;;;;1999.90;999.90;;;11.60;36.90;;;;;;5093983;28;20113;-81
2022/06/04 01:06:44;;;;;;;1999.90;754.97;;;11.60;35.60;;;;;;5110794;28;20509;-79
2022/06/04 01:09:09;;;;;;;1999.90;580.25;;;11.70;36.30;;;;;;5093466;28;20441;-79
2022/06/04 01:11:35;;;;;;;1999.90;504.90;;;11.70;31.70;;;;;;5111609;28;20093;-79
2022/06/04 01:14:10;;;;;;;1607.35;346.30;;;11.70;40.60;;;;;;5093322;28;20051;-80
2022/06/04 01:17:00;;;;;;;778.30;173.38;;;11.70;36.00;;;;;;5110129;28;20055;-82
2022/06/04 01:19:45;;;;;;;1173.35;237.05;;;11.70;33.40;;;;;;5111221;28;20464;-80
2022/06/04 01:22:32;;;;;;;1999.90;999.90;;;11.80;30.50;;;;;;5093621;28;20051;-84
2022/06/04 01:25:27;;;;;;;1999.90;999.90;;;11.60;28.20;;;;;;5092757;28;20048;-81
2022/06/04 01:28:00;;;;;;;1810.90;579.30;;;11.60;28.40;;;;;;5004904;28;20144;-79
2022/06/04 01:30:36;;;;;;;1999.90;847.58;;;11.60;29.70;;;;;;5111086;28;20333;-86
2022/06/04 01:33:10;;;;;;;1999.90;654.20;;;11.70;34.90;;;;;;5111459;28;20058;-80
2022/06/04 01:35:50;;;;;;;1999.90;786.42;;;11.60;31.50;;;;;;5091962;28;20126;-81
2022/06/04 01:38:49;;;;;;;1893.50;406.30;;;11.50;33.80;;;;;;5111158;28;20161;-80
2022/06/04 01:41:26;;;;;;;1966.75;507.38;;;11.50;44.20;;;;;;5111324;28;20135;-80
2022/06/04 01:43:57;;;;;;;1999.90;999.90;;;11.50;39.10;;;;;;5111123;28;20047;-83
2022/06/04 01:46:25;;;;;;;1558.18;485.00;;;11.50;38.20;;;;;;5110918;28;20553;-80
2022/06/04 01:48:56;;;;;;;1884.38;552.17;;;11.50;37.50;;;;;;5111229;28;20437;-80
2022/06/04 01:51:25;;;;;;;1999.90;999.90;;;11.80;38.00;;;;;;5110561;28;20090;-80
2022/06/04 01:53:56;;;;;;;1999.90;707.60;;;11.80;38.80;;;;;;5093102;28;20054;-83
2022/06/04 01:56:37;;;;;;;1999.90;646.67;;;11.40;40.70;;;;;;5092848;28;20348;-80
2022/06/04 01:59:23;;;;;;;1999.90;999.90;;;11.30;38.20;;;;;;5110916;28;20046;-80
2022/06/04 02:01:52;;;;;;;1999.90;999.90;;;11.30;42.60;;;;;;5092675;28;20366;-79
2022/06/04 02:04:23;;;;;;;1999.90;662.30;;;11.30;40.40;;;;;;5092695;28;20484;-80
2022/06/04 02:09:47;;;;;;;1999.90;504.35;;;11.30;56.00;;;;;;5114957;28;20062;-80
2022/06/04 02:12:14;;;;;;;1999.90;621.42;;;11.20;54.30;;;;;;5115789;28;20066;-81
2022/06/04 02:14:41;;;;;;;1999.90;612.85;;;11.20;56.70;;;;;;5114957;28;20086;-80
2022/06/04 02:17:14;;;;;;;1999.90;784.42;;;11.30;58.50;;;;;;5115363;28;20057;-85
2022/06/04 02:19:41;;;;;;;1999.90;999.90;;;11.10;57.80;;;;;;5096566;28;20063;-80
2022/06/04 02:22:08;;;;;;;1999.90;999.90;;;11.10;60.70;;;;;;5115350;28;20051;-80
2022/06/04 02:24:34;;;;;;;1999.90;999.90;;;11.10;58.90;;;;;;5114489;28;20043;-83
2022/06/04 02:27:01;;;;;;;1999.90;999.90;;;11.00;67.20;;;;;;5114711;28;20051;-80
2022/06/04 02:29:27;;;;;;;1999.90;999.90;;;11.10;67.40;;;;;;5114965;28;20067;-80
2022/06/04 02:32:14;;;;;;;1999.90;692.33;;;11.10;66.50;;;;;;5114961;28;20039;-81
2022/06/04 02:34:58;;;;;;;1999.90;999.90;;;11.10;66.30;;;;;;5112163;28;20492;-80
2022/06/04 02:37:33;;;;;;;1999.90;647.05;;;11.00;63.00;;;;;;5079313;28;20051;-80
2022/06/04 02:40:09;;;;;;;1999.90;563.42;;;10.90;64.40;;;;;;5114144;28;20104;-80
2022/06/04 02:42:52;;;;;;;1999.90;763.22;;;10.90;68.50;;;;;;5096442;28;20063;-80
2022/06/04 02:45:27;;;;;;;1999.90;720.38;;;10.80;75.20;;;;;;5114248;28;20078;-80
2022/06/04 02:48:01;;;;;;;1994.93;532.50;;;10.80;72.60;;;;;;5096888;28;20106;-80
2022/06/04 02:50:55;;;;;;;1999.90;616.80;;;11.00;75.70;;;;;;5114374;28;20428;-80
2022/06/04 02:53:22;;;;;;;1780.85;429.17;;;10.70;79.80;;;;;;5086229;28;20098;-81
2022/06/04 02:55:54;;;;;;;1980.43;487.48;;;10.70;80.20;;;;;;5096424;28;20054;-85
2022/06/04 02:58:21;;;;;;;1992.30;532.55;;;10.70;83.40;;;;;;5114375;28;20507;-80
2022/06/04 03:00:50;;;;;;;1999.90;518.92;;;10.60;85.10;;;;;;5113204;28;20145;-80
2022/06/04 03:03:16;;;;;;;1999.90;644.92;;;10.70;84.30;;;;;;5114291;28;20048;-80
2022/06/04 03:05:56;;;;;;;1999.90;999.90;;;10.60;83.40;;;;;;5114732;28;20070;-80
2022/06/04 03:08:23;;;;;;;1999.90;999.90;;;11.70;85.50;;;;;;5114132;28;20124;-80
2022/06/04 03:10:49;;;;;;;1999.90;999.90;;;11.20;85.30;;;;;;5113903;28;20040;-80
2022/06/04 03:13:15;;;;;;;1839.47;485.63;;;11.90;87.80;;;;;;5113801;28;20050;-79
2022/06/04 03:15:41;;;;;;;1999.90;999.90;;;10.50;89.10;;;;;;5114002;28;20055;-79
2022/06/04 03:18:07;;;;;;;1999.90;999.90;;;10.50;91.00;;;;;;5113280;28;20391;-81
2022/06/04 03:20:33;;;;;;;1999.90;696.85;;;10.50;95.60;;;;;;5113724;28;20082;-80
2022/06/04 03:22:59;;;;;;;1999.90;708.90;;;10.50;96.00;;;;;;5113968;28;20389;-79
2022/06/04 03:25:25;;;;;;;1999.90;999.90;;;10.60;95.80;;;;;;5078596;28;20054;-80
2022/06/04 03:27:50;;;;;;;1999.90;999.90;;;11.00;96.00;;;;;;5095079;28;20039;-80
2022/06/04 03:30:16;;;;;;;1999.90;999.90;;;10.50;96.80;;;;;;5113745;28;20501;-82
2022/06/04 03:32:42;;;;;;;1999.90;999.90;;;10.50;97.40;;;;;;5113649;28;20062;-79
2022/06/04 03:35:08;;;;;;;1999.90;584.78;;;11.30;98.00;;;;;;5112055;28;20042;-81
2022/06/04 03:37:35;;;;;;;1999.90;999.90;;;11.10;98.30;;;;;;5113573;28;20035;-80
2022/06/04 03:40:04;;;;;;;1999.90;999.90;;;10.50;99.20;;;;;;5113375;28;20368;-80
2022/06/04 03:42:30;;;;;;;1999.90;999.90;;;10.50;99.60;;;;;;5114036;28;20051;-80
2022/06/04 03:44:56;;;;;;;1999.90;999.90;;;10.60;99.90;;;;;;5113216;28;20035;-80
2022/06/04 03:47:21;;;;;;;1999.90;999.90;;;10.50;99.90;;;;;;5095800;28;20047;-80
2022/06/04 03:49:47;;;;;;;1999.90;999.90;;;10.50;99.90;;;;;;5112293;28;20036;-80
2022/06/04 03:52:14;;;;;;;1964.82;620.10;;;10.70;99.90;;;;;;5095704;28;20050;-79
2022/06/04 03:54:55;;;;;;;1829.57;550.42;;;10.50;99.90;;;;;;5112742;28;20499;-80
2022/06/04 03:57:39;;;;;;;1994.90;649.58;;;10.50;99.90;;;;;;5113584;28;20079;-82
2022/06/04 04:00:32;;;;;;;1999.90;999.90;;;10.60;99.90;;;;;;5095422;28;20082;-79
2022/06/04 04:03:07;;;;;;;1999.90;664.17;;;10.60;99.90;;;;;;5111995;28;20104;-79
2022/06/04 04:05:36;;;;;;;1999.90;999.90;;;10.60;99.90;;;;;;5112983;28;20081;-80
2022/06/04 04:08:04;;;;;;;1999.90;999.90;;;10.60;99.90;;;;;;5113417;28;20124;-87
2022/06/04 04:10:30;;;;;;;;;;;10.60;99.90;;;;;;5113502;28;20451;-79
2022/06/04 04:12:56;;;;;;;1999.90;999.90;;;10.80;99.90;;;;;;5113063;28;19927;-79
2022/06/04 04:15:23;;;;;;;1999.90;999.90;;;10.70;99.90;;;;;;5112914;28;20052;-81
2022/06/04 04:17:49;;;;;;;1999.90;999.90;;;10.70;99.90;;;;;;5113132;28;20082;-79
2022/06/04 04:20:22;;;;;;;1999.90;999.90;;;10.70;99.90;;;;;;5112243;28;20035;-79
2022/06/04 04:22:48;;;;;;;1999.90;999.90;;;10.70;99.90;;;;;;5094773;28;20075;-79
2022/06/04 04:25:16;;;;;;;1999.90;739.33;;;10.80;99.90;;;;;;5112535;28;20046;-80
2022/06/04 04:27:42;;;;;;;1999.90;889.88;;;10.80;99.90;;;;;;5094965;28;20475;-79
2022/06/04 04:30:12;;;;;;;1999.90;999.90;;;10.80;99.90;;;;;;5112029;28;20079;-79
2022/06/04 04:32:37;;;;;;;1999.90;999.90;;;10.80;99.90;;;;;;5112590;28;20036;-86
2022/06/04 04:35:07;;;;;;;1999.90;999.90;;;11.80;99.90;;;;;;5092334;28;20039;-80
2022/06/04 04:37:33;;;;;;;1999.90;999.90;;;10.90;99.90;;;;;;5112358;28;20468;-79
2022/06/04 04:39:58;;;;;;;1999.90;583.45;;;10.90;99.90;;;;;;5111404;28;20032;-79
2022/06/04 04:42:24;;;;;;;1999.90;999.90;;;11.00;99.90;;;;;;5112772;28;20529;-85
2022/06/04 04:44:50;;;;;;;1999.90;999.90;;;10.90;99.90;;;;;;5111921;28;20100;-81
2022/06/04 04:47:16;;;;;;;1999.90;800.40;;;11.10;99.90;;;;;;5112775;28;20039;-81
2022/06/04 04:49:42;;;;;;;1887.10;480.42;;;11.10;99.90;;;;;;5076464;28;20085;-81
2022/06/04 04:52:08;;;;;;;1999.90;642.00;;;11.10;99.90;;;;;;5112634;28;20110;-80
2022/06/04 04:54:34;;;;;;;1303.68;286.20;;;11.10;99.90;;;;;;5093903;28;20047;-80
2022/06/04 04:57:00;;;;;;;1828.25;499.92;;;11.20;99.90;;;;;;5093422;28;20097;-80
2022/06/04 04:59:26;;;;;;;1887.22;549.38;;;11.20;99.90;;;;;;5112105;28;20046;-80
2022/06/04 05:01:52;;;;;;;1841.90;505.63;;;11.30;99.90;;;;;;5111674;28;20458;-81
2022/06/04 05:04:18;;;;;;;1372.03;406.00;;;11.20;99.90;;;;;;5112223;28;20136;-80
2022/06/04 05:06:44;;;;;;;1875.28;864.45;;;11.20;99.90;;;;;;5093459;28;20036;-80
2022/06/04 05:09:10;;;;;;;1899.95;513.08;;;11.30;99.90;;;;;;5076683;28;20039;-80
2022/06/04 05:11:37;;;;;;;1387.03;351.80;;;12.10;99.90;;;;;;5111645;28;20498;-80
2022/06/04 05:14:03;;;;;;;1852.40;490.65;;;11.40;99.90;;;;;;5112242;28;20629;-80
2022/06/04 05:16:35;;;;;;;1900.47;451.40;;;11.40;99.90;;;;;;5093705;28;20551;-80
2022/06/04 05:19:02;;;;;;;1999.90;999.90;;;11.40;99.90;;;;;;5093538;28;20039;-80
2022/06/04 05:21:46;;;;;;;1999.90;999.90;;;12.10;99.90;;;;;;5111450;28;20046;-79
2022/06/04 05:24:19;;;;;;;1999.90;999.90;;;11.50;99.50;;;;;;5076613;28;20048;-80
2022/06/04 05:26:45;;;;;;;1999.90;731.08;;;11.60;99.50;;;;;;5111706;28;20078;-86
2022/06/04 05:29:12;;;;;;;1999.90;674.63;;;11.60;98.80;;;;;;5112233;28;20122;-80
2022/06/04 05:31:39;;;;;;;1999.90;999.90;;;11.70;98.40;;;;;;5093157;28;20058;-79
2022/06/04 05:34:06;;;;;;;1791.07;578.43;;;11.70;96.80;;;;;;5109327;28;20499;-79
2022/06/04 05:36:32;;;;;;;1999.90;999.90;;;11.80;97.50;;;;;;5111304;28;20772;-79
2022/06/04 05:38:57;;;;;;;1643.25;399.52;;;11.90;96.40;;;;;;5092038;28;20281;-80
2022/06/04 05:41:23;;;;;;;1999.90;672.05;;;11.90;93.10;;;;;;5110999;28;20075;-78
2022/06/04 05:43:49;;;;;;;1999.90;999.90;;;12.00;91.70;;;;;;5093677;28;20134;-79
2022/06/04 05:46:19;;;;;;;1999.90;999.90;;;13.10;91.20;;;;;;5093572;28;20052;-79
2022/06/04 05:48:46;;;;;;;1999.90;999.90;;;12.40;89.00;;;;;;5111761;28;20053;-81
2022/06/04 05:51:15;;;;;;;1974.35;524.00;;;12.40;75.50;;;;;;5111370;28;20048;-79
2022/06/04 05:53:41;;;;;;;1828.93;454.38;;;12.30;50.70;;;;;;5110770;28;20185;-79
2022/06/04 05:56:13;;;;;;;1696.53;795.10;;;12.30;47.50;;;;;;5093008;28;20134;-81
2022/06/04 05:58:39;;;;;;;1571.00;353.67;;;12.40;40.00;;;;;;5110640;28;20176;-80
2022/06/04 06:01:06;;;;;;;1999.90;999.90;;;12.40;39.90;;;;;;5093365;28;20427;-80
2022/06/04 06:03:31;;;;;;;1999.90;999.90;;;12.60;40.80;;;;;;5092963;28;20047;-80
2022/06/04 06:05:58;;;;;;;1999.90;744.92;;;12.70;42.90;;;;;;5093742;28;20552;-79
2022/06/04 06:08:24;;;;;;;1999.90;999.90;;;12.90;36.30;;;;;;5111255;28;20047;-80
2022/06/04 06:10:50;;;;;;;1999.90;999.90;;;13.00;32.70;;;;;;5093537;28;20044;-80
2022/06/04 06:13:16;;;;;;;1948.68;738.22;;;13.10;26.00;;;;;;5111354;28;20047;-80
2022/06/04 06:15:42;;;;;;;1999.90;999.90;;;13.30;23.50;;;;;;5110680;28;20133;-79
2022/06/04 06:18:08;;;;;;;1739.03;412.70;;;13.40;6.30;;;;;;5110799;28;20487;-79
2022/06/04 06:20:34;;;;;;;1999.90;574.17;;;13.50;1.00;;;;;;5111539;28;20436;-79
2022/06/04 06:23:00;;;;;;;1314.38;352.73;;;13.60;1.00;;;;;;5110803;28;20122;-80
2022/06/04 06:25:26;;;;;;;1344.32;307.13;;;13.70;1.00;;;;;;5093614;28;20048;-79
2022/06/04 06:27:52;;;;;;;1999.90;999.90;;;13.80;1.00;;;;;;5093448;28;20368;-79
2022/06/04 06:30:19;;;;;;;1766.60;490.35;;;13.90;1.00;;;;;;5092089;28;20038;-79
2022/06/04 06:32:46;;;;;;;1999.90;999.90;;;13.90;1.00;;;;;;5110984;28;20242;-78
2022/06/04 06:35:12;;;;;;;1826.00;696.35;;;14.00;1.00;;;;;;5108621;28;20056;-77
2022/06/04 06:37:38;;;;;;;1999.90;999.90;;;14.10;1.00;;;;;;5110267;28;20086;-79
2022/06/04 06:40:05;;;;;;;1999.90;999.90;;;14.10;1.00;;;;;;5110333;28;20079;-80
2022/06/04 06:42:30;;;;;;;1748.40;830.65;;;14.20;1.00;;;;;;5111562;28;20154;-79
2022/06/04 06:44:56;;;;;;;1285.07;603.35;;;14.30;1.00;;;;;;5093093;28;20542;-81
2022/06/04 06:47:22;;;;;;;1752.30;847.25;;;14.40;1.00;;;;;;5111272;28;20070;-80
2022/06/04 06:49:48;;;;;;;1999.90;999.90;;;14.40;1.00;;;;;;5092986;28;20183;-79
2022/06/04 06:52:16;;;;;;;1502.22;713.17;;;14.50;1.00;;;;;;5095561;28;20127;-79
2022/06/04 06:54:42;;;;;;;1999.90;999.90;;;14.70;1.00;;;;;;5114595;28;20412;-79
2022/06/04 06:57:10;;;;;;;1999.90;999.90;;;14.90;1.00;;;;;;5115194;28;20058;-79
2022/06/04 06:59:37;;;;;;;1929.93;495.77;;;14.90;1.00;;;;;;5096445;28;20051;-79
2022/06/04 07:02:03;;;;;;;1999.90;999.90;;;15.10;1.00;;;;;;5096711;28;20082;-78
2022/06/04 07:04:29;;;;;;;1870.90;619.50;;;15.20;1.00;;;;;;5096980;28;20043;-80
2022/06/04 07:06:58;;;;;;;1852.03;842.00;;;15.90;1.00;;;;;;5097212;28;20052;-80
2022/06/04 07:09:33;;;;;;;1633.22;716.58;;;17.50;1.00;;;;;;5096358;28;20039;-81
2022/06/04 07:11:59;;;;;;;1999.90;999.90;;;19.30;1.00;;;;;;5114579;28;20531;-80
2022/06/04 07:14:26;;;;;;;1999.90;999.90;;;20.60;1.00;;;;;;5096690;28;20091;-80
2022/06/04 07:16:53;;;;;;;1999.90;999.90;;;22.00;1.00;;;;;;5115176;28;20051;-78
2022/06/04 07:19:21;;;;;;;1999.90;999.90;;;23.00;99.90;;;;;;5096268;28;20050;-79
2022/06/04 07:21:47;;;;;;;1904.97;999.90;;;23.90;99.90;;;;;;5096327;28;20082;-79
2022/06/04 07:24:13;;;;;;;1091.10;962.42;;;24.70;99.90;;;;;;5114344;28;20122;-79
2022/06/04 07:26:41;;;;;;;1022.45;847.05;;;25.40;99.90;;;;;;5096786;28;20048;-79
2022/06/04 07:29:08;;;;;;;1233.63;999.90;;;26.00;99.90;;;;;;5096058;28;20047;-78
2022/06/04 07:31:34;;;;;;;826.80;761.58;;;26.50;99.90;;;;;;5078684;28;20043;-84
2022/06/04 07:34:01;;;;;;;328.17;307.92;;;26.80;99.90;;;;;;5094450;28;20096;-79
2022/06/04 07:36:33;;;;;;;365.23;339.65;;;27.00;99.90;;;;;;5078394;28;20062;-82
2022/06/04 07:38:59;;;;;;;354.77;330.13;;;27.10;99.90;;;;;;5079221;28;20138;-80
2022/06/04 07:41:27;;;;;;;383.80;360.33;;;27.50;99.90;;;;;;5113782;28;20081;-79
2022/06/04 07:43:53;;;;;;;408.35;380.85;;;27.50;99.90;;;;;;5095442;28;20164;-80
2022/06/04 07:46:21;;;;;;;503.88;469.27;;;27.60;99.90;;;;;;5112747;28;20044;-80
2022/06/04 07:48:47;;;;;;;359.83;334.95;;;28.00;99.90;;;;;;5113801;28;20040;-79
2022/06/04 07:51:14;;;;;;;507.10;470.67;;;28.30;99.90;;;;;;5113532;28;20054;-81
2022/06/04 07:53:40;;;;;;;362.87;340.50;;;29.00;99.90;;;;;;5113560;28;20048;-80
2022/06/04 07:56:12;;;;;;;440.17;407.90;;;29.50;99.90;;;;;;5113345;28;20313;-79
2022/06/04 07:58:38;;;;;;;633.22;585.75;;;29.80;99.90;;;;;;5115027;28;20070;-78
2022/06/04 08:01:05;;;;;;;432.52;399.33;;;30.20;99.90;;;;;;5095427;28;20484;-85
2022/06/04 08:03:37;;;;;;;359.73;335.27;;;30.40;99.90;;;;;;5094301;28;20043;-79
2022/06/04 08:06:04;;;;;;;405.90;378.30;;;30.70;99.90;;;;;;5094466;28;20507;-78
2022/06/04 08:08:32;;;;;;;545.75;506.48;;;30.70;99.90;;;;;;5112596;28;20055;-79
2022/06/04 08:10:59;;;;;;;633.97;586.05;;;31.00;99.90;;;;;;5112501;28;20043;-79
2022/06/04 08:13:30;;;;;;;614.35;571.47;;;31.20;99.90;;;;;;5111853;28;20044;-81
2022/06/04 08:15:58;;;;;;;522.15;484.95;;;31.90;99.90;;;;;;5112479;28;20143;-78
2022/06/04 08:18:25;;;;;;;630.45;586.38;;;32.10;99.90;;;;;;5112647;28;20039;-79
2022/06/04 08:20:52;;;;;;;487.10;451.75;;;32.10;99.90;;;;;;5112659;28;20055;-79
2022/06/04 08:23:19;;;;;;;496.33;459.00;;;31.60;99.90;;;;;;5111631;28;20069;-81
2022/06/04 08:25:50;;;;;;;682.87;632.87;;;31.00;99.90;;;;;;5112274;28;20289;-80
2022/06/04 08:28:16;;;;;;;487.38;453.27;;;30.10;99.90;;;;;;5077460;28;20165;-79
2022/06/04 08:30:43;;;;;;;578.95;535.47;;;29.80;99.90;;;;;;5112316;28;20138;-82
2022/06/04 08:33:09;;;;;;;522.67;485.05;;;29.30;99.90;;;;;;5093874;28;20421;-76
2022/06/04 08:35:35;;;;;;;540.85;499.63;;;29.00;99.90;;;;;;5110164;28;20055;-78
2022/06/04 08:38:01;;;;;;;718.45;662.00;;;29.20;99.90;;;;;;5112654;28;20047;-79
2022/06/04 08:40:37;;;;;;;617.28;570.92;;;28.90;99.90;;;;;;5111465;28;20039;-78
2022/06/04 08:43:17;;;;;;;722.75;664.47;;;28.60;99.90;;;;;;5111857;28;20551;-81
2022/06/04 08:45:44;;;;;;;483.35;448.02;;;29.00;99.90;;;;;;5112312;28;20069;-80
2022/06/04 08:48:22;;;;;;;693.95;640.55;;;29.80;99.90;;;;;;5112042;28;20047;-78
2022/06/04 08:50:49;;;;;;;656.42;607.05;;;30.70;99.90;;;;;;5095014;28;20135;-77
2022/06/04 08:53:27;;;;;;;404.25;374.70;;;31.50;99.90;;;;;;5094175;28;20052;-78
2022/06/04 08:58:52;;;;;;;529.95;492.27;;;32.90;99.90;;;;;;5112818;28;20055;-78
2022/06/04 09:01:43;;;;;;;493.70;456.50;;;33.50;99.90;;;;;;5111979;28;20052;-78
2022/06/04 09:04:33;;;;;;;610.58;566.90;;;33.40;99.90;;;;;;5094395;28;20105;-82
2022/06/04 09:07:10;;;;;;;454.70;423.45;;;33.70;99.90;;;;;;5094055;28;20461;-78
2022/06/04 09:09:53;;;;;;;493.88;460.85;;;33.90;99.90;;;;;;5111979;28;20135;-78
2022/06/04 09:12:43;;;;;;;606.17;564.00;;;34.20;99.90;;;;;;5112264;28;20050;-78
2022/06/04 09:15:30;;;;;;;758.22;703.80;;;34.70;99.90;;;;;;5110121;28;20602;-78
2022/06/04 09:18:04;;;;;;;700.03;650.28;;;35.00;99.90;;;;;;5093789;28;20051;-78
2022/06/04 09:20:37;;;;;;;521.88;486.25;;;35.10;99.90;;;;;;5077039;28;20079;-78
2022/06/04 09:23:34;;;;;;;734.97;683.83;;;35.30;99.90;;;;;;5111861;28;20047;-84
2022/06/04 09:26:13;;;;;;;694.58;645.28;;;35.30;99.90;;;;;;5093382;28;20126;-78
2022/06/04 09:29:16;;;;;;;648.40;604.10;;;35.00;99.90;;;;;;5111796;28;20127;-82
2022/06/04 09:32:12;;;;;;;561.83;522.53;;;34.40;99.90;;;;;;5112012;28;20047;-78
2022/06/04 09:34:47;;;;;;;699.65;651.38;;;34.40;99.90;;;;;;5108432;28;20165;-84
2022/06/04 09:37:13;;;;;;;729.00;677.80;;;34.20;99.90;;;;;;5111666;28;20392;-84
2022/06/04 09:39:42;;;;;;;717.05;668.17;;;34.20;99.90;;;;;;5089943;28;20036;-78
2022/06/04 09:42:11;;;;;;;740.00;687.65;;;34.40;99.90;;;;;;5112220;28;20043;-77
2022/06/04 09:44:47;;;;;;;749.83;697.67;;;34.70;99.90;;;;;;5111251;28;20047;-78
2022/06/04 09:47:25;;;;;;;736.90;684.40;;;35.00;99.90;;;;;;5094988;28;20051;-77
2022/06/04 09:49:59;;;;;;;707.83;657.17;;;35.40;99.90;;;;;;5111829;28;20492;-78
2022/06/04 09:52:39;;;;;;;627.22;579.75;;;35.60;99.90;;;;;;5093372;28;20084;-79
2022/06/04 09:55:22;;;;;;;501.08;464.30;;;35.40;99.90;;;;;;5111440;28;20161;-78
2022/06/04 09:58:01;;;;;;;697.60;646.70;;;34.90;99.90;;;;;;5111894;28;20394;-79
2022/06/04 10:00:36;;;;;;;770.88;713.63;;;35.30;99.90;;;;;;5111088;28;20519;-79
2022/06/04 10:03:14;;;;;;;707.88;655.20;;;35.70;99.90;;;;;;5111812;28;20229;-80
2022/06/04 10:05:57;;;;;;;616.85;566.88;;;36.10;99.90;;;;;;5076283;28;20055;-79
2022/06/04 10:08:24;;;;;;;798.38;737.38;;;36.40;99.90;;;;;;5110994;28;20122;-79
2022/06/04 10:10:57;;;;;;;706.72;655.55;;;36.80;99.90;;;;;;5093166;28;20103;-79
2022/06/04 10:13:46;;;;;;;667.00;619.45;;;36.90;99.90;;;;;;5111172;28;20039;-79
2022/06/04 10:16:16;;;;;;;731.78;677.88;;;36.90;99.90;;;;;;5111355;28;20090;-78
2022/06/04 10:18:58;;;;;;;679.95;632.35;;;36.60;99.90;;;;;;5111186;28;20083;-79
2022/06/04 10:21:36;;;;;;;619.03;572.38;;;36.40;99.90;;;;;;5111199;28;20043;-80
2022/06/04 10:24:17;;;;;;;600.70;558.95;;;35.60;99.90;;;;;;5111436;28;20395;-79
2022/06/04 10:27:05;;;;;;;678.40;628.53;;;35.10;99.90;;;;;;5094949;28;20047;-81
2022/06/04 10:29:52;;;;;;;710.83;660.05;;;34.90;99.90;;;;;;5114497;28;20039;-79
2022/06/04 10:32:36;;;;;;;745.90;692.17;;;34.30;99.90;;;;;;5115581;28;20083;-79
2022/06/04 10:35:11;;;;;;;589.30;548.90;;;33.90;99.90;;;;;;5095507;28;20053;-79
2022/06/04 10:38:03;;;;;;;514.88;480.80;;;34.30;99.90;;;;;;5115180;28;20472;-80
2022/06/04 10:40:40;;;;;;;673.03;624.95;;;34.90;99.90;;;;;;5066626;28;20056;-78
2022/06/04 10:43:25;;;;;;;719.95;667.33;;;35.20;99.90;;;;;;5115651;28;20044;-82
2022/06/04 10:46:17;;;;;;;694.70;644.58;;;35.20;99.90;;;;;;5115786;28;20062;-79
2022/06/04 10:49:20;;;;;;;588.78;548.47;;;35.70;99.90;;;;;;5114760;28;20177;-79
2022/06/04 10:52:00;;;;;;;692.42;640.95;;;36.30;99.90;;;;;;5115483;28;20055;-79
2022/06/04 10:54:49;;;;;;;796.47;736.05;;;36.70;99.90;;;;;;5114480;28;20052;-80
2022/06/04 10:57:28;;;;;;;626.13;581.78;;;36.50;99.90;;;;;;5097266;28;20127;-79
2022/06/04 10:59:57;;;;;;;818.50;753.42;;;36.90;99.90;;;;;;5115066;28;20078;-79
2022/06/04 11:02:34;;;;;;;657.58;610.22;;;36.90;99.90;;;;;;5115227;28;20104;-78
2022/06/04 11:05:17;;;;;;;738.30;682.83;;;36.90;99.90;;;;;;5114792;28;20047;-79
2022/06/04 11:08:01;;;;;;;682.17;633.20;;;36.90;99.90;;;;;;5114825;28;20039;-78
2022/06/04 11:10:34;;;;;;;796.72;734.50;;;36.80;99.90;;;;;;5114221;28;20054;-86
2022/06/04 11:13:04;;;;;;;689.05;639.25;;;37.00;99.90;;;;;;5114628;28;20044;-80
2022/06/04 11:15:42;;;;;;;779.83;717.83;;;37.10;99.90;;;;;;5114256;28;20519;-79
2022/06/04 11:18:23;;;;;;;621.53;577.78;;;37.10;99.90;;;;;;5114409;28;20051;-80
2022/06/04 11:21:18;;;;;;;801.90;739.50;;;37.30;99.90;;;;;;5113751;28;20457;-81
2022/06/04 11:24:17;;;;;;;844.28;779.05;;;37.40;99.90;;;;;;5091539;28;20055;-78
2022/06/04 11:27:11;;;;;;;783.13;722.45;;;37.50;99.90;;;;;;5096099;28;20051;-77
2022/06/04 11:29:37;;;;;;;666.80;619.28;;;36.70;99.90;;;;;;5095971;28;20046;-78
2022/06/04 11:32:08;;;;;;;718.20;663.77;;;36.10;99.90;;;;;;5113919;28;20579;-77
2022/06/04 11:35:14;;;;;;;637.13;591.70;;;35.50;99.90;;;;;;5112033;28;20285;-78
2022/06/04 11:38:16;;;;;;;696.50;646.80;;;35.80;99.90;;;;;;5094708;28;20089;-78
2022/06/04 11:41:16;;;;;;;626.28;582.33;;;36.30;99.90;;;;;;5113790;28;20031;-82
2022/06/04 11:43:57;;;;;;;679.42;630.90;;;36.50;99.90;;;;;;5113207;28;20480;-78
2022/06/04 11:46:38;;;;;;;712.70;660.53;;;36.60;99.90;;;;;;5114682;28;20196;-78
2022/06/04 11:49:36;;;;;;;586.00;544.47;;;36.80;99.90;;;;;;5096101;28;20474;-78
2022/06/04 11:52:24;;;;;;;719.03;666.77;;;36.40;99.90;;;;;;5114007;28;20075;-78
2022/06/04 11:55:12;;;;;;;678.05;630.22;;;36.50;99.90;;;;;;5112661;28;20066;-77
2022/06/04 11:58:03;;;;;;;664.70;617.45;;;36.70;99.90;;;;;;5113281;28;20116;-80
2022/06/04 12:00:36;;;;;;;723.55;670.47;;;36.70;99.90;;;;;;5113622;28;20073;-77
2022/06/04 12:03:11;;;;;;;647.58;602.50;;;36.30;99.90;;;;;;5112871;28;20403;-84
2022/06/04 12:05:46;;;;;;;676.47;628.22;;;36.30;99.90;;;;;;5113690;28;20462;-78
2022/06/04 12:08:16;;;;;;;644.13;598.45;;;36.50;99.90;;;;;;5113006;28;20123;-79
2022/06/04 12:10:57;;;;;;;681.80;632.63;;;36.70;99.90;;;;;;5113051;28;20510;-78
2022/06/04 12:13:31;;;;;;;536.20;500.10;;;36.70;99.90;;;;;;5113236;28;20138;-78
2022/06/04 12:16:11;;;;;;;510.73;477.05;;;36.00;99.90;;;;;;5112854;28;20052;-78
2022/06/04 12:18:57;;;;;;;697.25;645.70;;;35.10;99.90;;;;;;5112420;28;20475;-78
2022/06/04 12:24:32;;;;;;;632.00;584.95;;;32.90;99.90;;;;;;5112608;28;20052;-77
2022/06/04 12:27:18;;;;;;;643.58;596.80;;;31.50;99.90;;;;;;5113210;28;20047;-77
2022/06/04 12:29:46;;;;;;;577.90;535.63;;;30.70;99.90;;;;;;5112123;28;20046;-78
2022/06/04 12:32:17;;;;;;;;;;;30.00;99.90;;;;;;5113658;28;20043;-78
2022/06/04 12:34:43;;;;;;;547.47;509.70;;;29.40;99.90;;;;;;5111014;28;19927;-78
2022/06/04 12:37:27;;;;;;;467.48;436.92;;;28.80;99.90;;;;;;5095274;28;20048;-77
2022/06/04 12:39:53;;;;;;;622.50;575.78;;;28.10;99.90;;;;;;5112567;28;20118;-78
2022/06/04 12:42:19;;;;;;;630.30;584.45;;;27.70;99.90;;;;;;5111400;28;20646;-78
2022/06/04 12:44:57;;;;;;;604.40;558.30;;;27.30;99.90;;;;;;5112616;28;20043;-76